Time;durP1;ratioP1;P1;durP2;ratioP2;P2;SDS_P1;SDS_P2;PMS_P1;PMS_P2;Temp;Humidity;BMP_temperature;BMP_pressure;BME280_temperature;BME280_humidity;BME280_pressure;Samples;Min_cycle;Max_cycle;Signal;HPM_P1;HPM_P2
2021/11/15 00:00:16;;;;;;;0.80;0.80;;;9.10;99.90;;;;;;5077637;28;20480;-73
2021/11/15 00:02:43;;;;;;;0.40;0.30;;;9.10;99.90;;;;;;5078891;28;20390;-73
2021/11/15 00:05:12;;;;;;;1.20;0.90;;;9.10;99.90;;;;;;5087357;28;20394;-74
2021/11/15 00:07:40;;;;;;;0.40;0.20;;;9.30;99.90;;;;;;5082630;28;20387;-73
2021/11/15 00:10:07;;;;;;;0.70;0.70;;;9.30;99.90;;;;;;5072625;28;20371;-73
2021/11/15 00:12:33;;;;;;;0.40;0.30;;;9.30;99.90;;;;;;5071133;28;20383;-73
2021/11/15 00:14:58;;;;;;;0.40;0.30;;;9.10;99.90;;;;;;5071987;28;20386;-73
2021/11/15 00:17:24;;;;;;;0.50;0.50;;;9.10;99.90;;;;;;5071048;28;20469;-73
2021/11/15 00:19:50;;;;;;;0.40;0.30;;;9.10;99.90;;;;;;5072026;28;20387;-73
2021/11/15 00:22:15;;;;;;;0.70;0.70;;;9.20;99.90;;;;;;5071303;28;20379;-73
2021/11/15 00:24:41;;;;;;;0.60;0.60;;;9.20;99.90;;;;;;5071940;28;20425;-73
2021/11/15 00:27:07;;;;;;;0.50;0.50;;;9.20;99.90;;;;;;5072079;28;20388;-74
2021/11/15 00:29:33;;;;;;;0.40;0.40;;;9.20;99.90;;;;;;5071113;28;20663;-73
2021/11/15 00:31:58;;;;;;;0.40;0.20;;;9.20;99.90;;;;;;5070476;28;20391;-73
2021/11/15 00:34:24;;;;;;;1.20;0.80;;;9.20;99.90;;;;;;5071053;28;20395;-73
2021/11/15 00:36:50;;;;;;;0.70;0.70;;;9.20;99.90;;;;;;5071898;28;20396;-73
2021/11/15 00:39:16;;;;;;;0.50;0.50;;;9.20;99.90;;;;;;5070960;28;20390;-72
2021/11/15 00:41:41;;;;;;;1.00;0.60;;;9.10;99.90;;;;;;5071834;28;20745;-73
2021/11/15 00:44:07;;;;;;;2.05;0.88;;;9.20;99.90;;;;;;5070175;28;20394;-73
2021/11/15 00:46:33;;;;;;;0.85;0.82;;;9.10;99.90;;;;;;5070982;28;20478;-73
2021/11/15 00:48:58;;;;;;;1.10;0.70;;;9.10;99.90;;;;;;5089614;28;20861;-73
2021/11/15 00:51:26;;;;;;;0.40;0.20;;;9.10;99.90;;;;;;5091214;28;20398;-73
2021/11/15 00:53:53;;;;;;;0.70;0.70;;;9.00;99.90;;;;;;5091809;28;20477;-73
2021/11/15 00:56:19;;;;;;;0.40;0.30;;;9.10;99.90;;;;;;5090859;28;20752;-73
2021/11/15 00:58:45;;;;;;;0.50;0.50;;;9.10;99.90;;;;;;5091344;28;20441;-73
2021/11/15 01:01:11;;;;;;;0.40;0.38;;;9.10;99.90;;;;;;5090257;28;20432;-73
2021/11/15 01:03:37;;;;;;;1.10;1.00;;;9.20;99.90;;;;;;5090611;28;20370;-73
2021/11/15 01:06:03;;;;;;;0.40;0.25;;;9.10;99.90;;;;;;5091460;28;20370;-73
2021/11/15 01:08:28;;;;;;;0.45;0.45;;;9.10;99.90;;;;;;5090497;28;20450;-73
2021/11/15 01:10:54;;;;;;;0.40;0.20;;;9.10;99.90;;;;;;5091307;28;20708;-73
2021/11/15 01:13:22;;;;;;;0.52;0.50;;;9.10;99.90;;;;;;5090526;28;20429;-72
2021/11/15 01:15:48;;;;;;;0.40;0.30;;;9.10;99.90;;;;;;5089733;28;20468;-73
2021/11/15 01:18:14;;;;;;;0.40;0.20;;;9.00;99.90;;;;;;5090606;28;20428;-72
2021/11/15 01:20:40;;;;;;;14.10;1.10;;;9.00;99.90;;;;;;5091096;28;20404;-73
2021/11/15 01:23:07;;;;;;;1.70;1.30;;;9.10;99.90;;;;;;5090966;28;20461;-73
2021/11/15 01:25:34;;;;;;;0.50;0.50;;;9.10;99.90;;;;;;5089613;28;20460;-73
2021/11/15 01:28:00;;;;;;;0.50;0.50;;;9.10;99.90;;;;;;5090587;28;20386;-73
2021/11/15 01:30:27;;;;;;;0.40;0.20;;;9.00;99.90;;;;;;5090077;28;20438;-73
2021/11/15 01:32:53;;;;;;;0.40;0.30;;;9.10;99.90;;;;;;5090966;28;20381;-73
2021/11/15 01:35:20;;;;;;;0.40;0.30;;;9.10;99.90;;;;;;5090299;28;20735;-73
2021/11/15 01:37:45;;;;;;;0.47;0.45;;;9.10;99.90;;;;;;5090602;28;20399;-74
2021/11/15 01:40:17;;;;;;;0.40;0.40;;;9.10;99.90;;;;;;5090827;28;20391;-73
2021/11/15 01:42:43;;;;;;;0.40;0.40;;;9.20;99.90;;;;;;5090938;28;20531;-73
2021/11/15 01:45:11;;;;;;;0.68;0.68;;;9.00;99.90;;;;;;5090474;28;20941;-73
2021/11/15 01:47:37;;;;;;;0.40;0.30;;;8.90;99.90;;;;;;5089871;28;20457;-74
2021/11/15 01:50:05;;;;;;;0.40;0.20;;;9.00;99.90;;;;;;5090584;28;20382;-74
2021/11/15 01:52:31;;;;;;;0.40;0.25;;;8.90;99.90;;;;;;5089996;28;20402;-73
2021/11/15 01:54:56;;;;;;;0.40;0.25;;;8.80;99.90;;;;;;5090775;28;20684;-74
2021/11/15 01:57:22;;;;;;;1.40;1.00;;;8.80;99.90;;;;;;5089832;28;20410;-73
2021/11/15 01:59:48;;;;;;;0.40;0.20;;;8.90;99.90;;;;;;5090721;28;20432;-74
2021/11/15 02:02:14;;;;;;;1.50;1.40;;;9.00;99.90;;;;;;5090561;28;20866;-74
2021/11/15 02:04:39;;;;;;;0.40;0.30;;;9.10;99.90;;;;;;5089845;28;20411;-74
2021/11/15 02:07:05;;;;;;;1.20;0.90;;;9.10;99.90;;;;;;5090125;28;20447;-74
2021/11/15 02:09:31;;;;;;;1.50;1.00;;;8.90;99.90;;;;;;5089391;28;20428;-74
2021/11/15 02:11:57;;;;;;;0.63;0.47;;;8.90;99.90;;;;;;5090364;28;20387;-74
2021/11/15 02:14:23;;;;;;;0.80;0.80;;;8.90;99.90;;;;;;5089727;28;20392;-73
2021/11/15 02:16:49;;;;;;;0.40;0.40;;;8.90;99.90;;;;;;5090836;28;20386;-74
2021/11/15 02:19:15;;;;;;;0.40;0.40;;;8.90;99.90;;;;;;5090204;28;20386;-74
2021/11/15 02:21:41;;;;;;;0.50;0.50;;;8.90;99.90;;;;;;5089457;28;20389;-74
2021/11/15 02:24:07;;;;;;;0.40;0.30;;;8.90;99.90;;;;;;5090214;28;20375;-74
2021/11/15 02:26:33;;;;;;;0.40;0.20;;;8.90;99.90;;;;;;5089598;28;20508;-73
2021/11/15 02:28:59;;;;;;;0.93;0.82;;;8.90;99.90;;;;;;5090130;28;20374;-74
2021/11/15 02:31:28;;;;;;;1.90;0.80;;;8.80;99.90;;;;;;5089715;28;20448;-73
2021/11/15 02:33:57;;;;;;;2.15;0.95;;;8.80;99.90;;;;;;5090121;28;20439;-74
2021/11/15 02:36:27;;;;;;;0.40;0.30;;;8.70;99.90;;;;;;5091171;28;20466;-73
2021/11/15 02:38:52;;;;;;;0.70;0.70;;;8.80;99.90;;;;;;5094113;28;20746;-73
2021/11/15 02:41:20;;;;;;;0.40;0.30;;;8.90;99.90;;;;;;5093867;28;20389;-73
2021/11/15 02:43:46;;;;;;;0.85;0.85;;;8.80;99.90;;;;;;5094043;28;20385;-74
2021/11/15 02:46:13;;;;;;;0.52;0.52;;;8.80;99.90;;;;;;5094290;28;20456;-74
2021/11/15 02:48:39;;;;;;;0.60;0.60;;;8.80;99.90;;;;;;5093279;28;20998;-73
2021/11/15 02:51:05;;;;;;;0.40;0.30;;;8.90;99.90;;;;;;5093801;28;20444;-73
2021/11/15 02:53:31;;;;;;;0.40;0.20;;;8.80;99.90;;;;;;5093376;28;20370;-73
2021/11/15 02:55:58;;;;;;;0.40;0.30;;;8.80;99.90;;;;;;5093956;28;20726;-74
2021/11/15 02:58:24;;;;;;;0.40;0.30;;;9.00;99.90;;;;;;5092792;28;20753;-73
2021/11/15 03:01:17;;;;;;;0.40;0.30;;;8.90;99.90;;;;;;5093538;28;20472;-74
2021/11/15 03:03:43;;;;;;;1.00;0.80;;;8.90;99.90;;;;;;5087256;28;20750;-73
2021/11/15 03:06:12;;;;;;;0.63;0.52;;;8.90;99.90;;;;;;5093688;28;20384;-74
2021/11/15 03:08:39;;;;;;;0.50;0.50;;;8.90;99.90;;;;;;5092642;28;20378;-73
2021/11/15 03:11:06;;;;;;;0.60;0.60;;;8.90;99.90;;;;;;5093597;28;20444;-73
2021/11/15 03:13:45;;;;;;;0.40;0.40;;;8.90;99.90;;;;;;5092781;28;20386;-73
2021/11/15 03:16:12;;;;;;;0.40;0.30;;;8.80;99.90;;;;;;5093828;28;20775;-74
2021/11/15 03:18:40;;;;;;;0.50;0.32;;;9.00;99.90;;;;;;5092735;28;20472;-73
2021/11/15 03:21:18;;;;;;;3.10;1.20;;;8.80;99.90;;;;;;5093310;28;20382;-73
2021/11/15 03:23:48;;;;;;;0.40;0.30;;;8.80;99.90;;;;;;5092362;28;21040;-73
2021/11/15 03:26:14;;;;;;;0.70;0.60;;;8.80;99.90;;;;;;5093089;28;20720;-73
2021/11/15 03:28:43;;;;;;;0.40;0.30;;;8.70;99.90;;;;;;5092603;28;20471;-73
2021/11/15 03:31:25;;;;;;;0.50;0.50;;;8.70;99.90;;;;;;5093236;28;20504;-73
2021/11/15 03:33:54;;;;;;;0.60;0.50;;;8.70;99.90;;;;;;5093317;28;20378;-73
2021/11/15 03:36:20;;;;;;;0.40;0.20;;;8.70;99.90;;;;;;5093111;28;20503;-73
2021/11/15 03:38:46;;;;;;;0.40;0.30;;;8.80;99.90;;;;;;5092409;28;20945;-73
2021/11/15 03:41:13;;;;;;;0.80;0.80;;;8.80;99.90;;;;;;5093171;28;20382;-74
2021/11/15 03:43:39;;;;;;;0.40;0.30;;;8.80;99.90;;;;;;5092412;28;20378;-73
2021/11/15 03:46:05;;;;;;;0.40;0.30;;;8.90;99.90;;;;;;5093126;28;20409;-73
2021/11/15 03:48:31;;;;;;;0.40;0.20;;;8.90;99.90;;;;;;5091375;28;20391;-73
2021/11/15 03:50:57;;;;;;;1.40;0.50;;;8.90;99.90;;;;;;5092864;28;20438;-73
2021/11/15 03:53:30;;;;;;;1.45;0.35;;;8.90;99.90;;;;;;5092845;28;20897;-74
2021/11/15 03:55:56;;;;;;;0.80;0.80;;;8.70;99.90;;;;;;5092742;28;20385;-74
2021/11/15 03:58:22;;;;;;;0.68;0.68;;;8.70;99.90;;;;;;5092384;28;20868;-74
2021/11/15 04:00:48;;;;;;;0.80;0.80;;;8.70;99.90;;;;;;5091972;28;20382;-73
2021/11/15 04:03:18;;;;;;;0.40;0.30;;;8.70;99.90;;;;;;5092647;28;20383;-74
2021/11/15 04:05:52;;;;;;;0.40;0.30;;;8.70;99.90;;;;;;5091957;28;20752;-73
2021/11/15 04:08:18;;;;;;;0.40;0.38;;;8.60;99.90;;;;;;5092616;28;20390;-73
2021/11/15 04:10:45;;;;;;;0.50;0.50;;;8.80;99.90;;;;;;5091813;28;20394;-73
2021/11/15 04:13:16;;;;;;;0.40;0.30;;;8.80;99.90;;;;;;5092622;28;20370;-73
2021/11/15 04:15:43;;;;;;;0.50;0.40;;;8.90;99.90;;;;;;5091469;28;20477;-73
2021/11/15 04:18:11;;;;;;;0.40;0.30;;;8.80;99.90;;;;;;5091962;28;20960;-73
2021/11/15 04:20:37;;;;;;;0.40;0.20;;;8.80;99.90;;;;;;5091638;28;20386;-73
2021/11/15 04:23:03;;;;;;;0.70;0.70;;;8.70;99.90;;;;;;5092020;28;20377;-73
2021/11/15 04:25:30;;;;;;;0.40;0.30;;;8.90;99.90;;;;;;5091094;28;20858;-73
2021/11/15 04:27:55;;;;;;;0.40;0.30;;;8.70;99.90;;;;;;5091973;28;20393;-73
2021/11/15 04:30:21;;;;;;;0.40;0.40;;;8.70;99.90;;;;;;5092388;28;20378;-73
2021/11/15 04:32:47;;;;;;;0.40;0.30;;;8.80;99.90;;;;;;5091522;28;20922;-74
2021/11/15 04:35:17;;;;;;;0.40;0.20;;;8.80;99.90;;;;;;5092263;28;20414;-73
2021/11/15 04:37:43;;;;;;;0.45;0.45;;;8.80;99.90;;;;;;5091219;28;20441;-73
2021/11/15 04:40:09;;;;;;;0.40;0.30;;;8.80;99.90;;;;;;5091510;28;20841;-73
2021/11/15 04:42:36;;;;;;;10.90;1.20;;;8.80;99.90;;;;;;5091354;28;20379;-73
2021/11/15 04:45:02;;;;;;;1.17;1.08;;;8.80;99.90;;;;;;5090236;28;20866;-73
2021/11/15 04:47:28;;;;;;;0.45;0.45;;;8.80;99.90;;;;;;5089480;28;20793;-73
2021/11/15 04:49:54;;;;;;;0.40;0.20;;;8.80;99.90;;;;;;5091743;28;20378;-73
2021/11/15 04:52:20;;;;;;;0.50;0.50;;;8.80;99.90;;;;;;5091900;28;20452;-74
2021/11/15 04:54:45;;;;;;;0.60;0.60;;;8.80;99.90;;;;;;5090670;28;20854;-73
2021/11/15 04:57:11;;;;;;;0.40;0.30;;;8.70;99.90;;;;;;5091552;28;20413;-73
2021/11/15 04:59:37;;;;;;;0.40;0.30;;;8.80;99.90;;;;;;5089906;28;20548;-73
2021/11/15 05:02:03;;;;;;;0.40;0.20;;;8.80;99.90;;;;;;5091779;28;20400;-73
2021/11/15 05:04:31;;;;;;;0.40;0.30;;;8.90;99.90;;;;;;5091295;28;20439;-72
2021/11/15 05:06:57;;;;;;;0.57;0.50;;;8.90;99.90;;;;;;5092004;28;20731;-73
2021/11/15 05:09:23;;;;;;;0.60;0.60;;;9.20;99.90;;;;;;5091659;28;20371;-73
2021/11/15 05:11:49;;;;;;;0.40;0.20;;;9.20;99.90;;;;;;5091068;28;20535;-73
2021/11/15 05:14:14;;;;;;;0.40;0.20;;;9.20;99.90;;;;;;5091888;28;20385;-74
2021/11/15 05:16:40;;;;;;;0.40;0.30;;;9.20;99.90;;;;;;5091197;28;20809;-73
2021/11/15 05:19:05;;;;;;;0.40;0.20;;;9.30;99.90;;;;;;5091548;28;20432;-73
2021/11/15 05:21:31;;;;;;;0.40;0.30;;;9.20;99.90;;;;;;5089716;28;20473;-73
2021/11/15 05:23:57;;;;;;;0.40;0.25;;;9.20;99.90;;;;;;5091602;28;20389;-73
2021/11/15 05:26:24;;;;;;;0.40;0.40;;;9.30;99.90;;;;;;5091547;28;20401;-74
2021/11/15 05:28:51;;;;;;;0.40;0.20;;;9.30;99.90;;;;;;5090584;28;20447;-73
2021/11/15 05:31:16;;;;;;;0.50;0.50;;;9.20;99.90;;;;;;5091453;28;20375;-73
2021/11/15 05:33:42;;;;;;;0.40;0.20;;;9.20;99.90;;;;;;5090911;28;20457;-73
2021/11/15 05:36:08;;;;;;;0.40;0.30;;;9.20;99.90;;;;;;5091369;28;20465;-73
2021/11/15 05:38:34;;;;;;;0.40;0.30;;;9.20;99.90;;;;;;5090822;28;20878;-72
2021/11/15 05:41:00;;;;;;;0.40;0.20;;;9.10;99.90;;;;;;5091379;28;20467;-73
2021/11/15 05:43:25;;;;;;;0.40;0.20;;;9.20;99.90;;;;;;5091351;28;20402;-73
2021/11/15 05:45:52;;;;;;;0.40;0.30;;;9.20;99.90;;;;;;5090445;28;20409;-73
2021/11/15 05:48:19;;;;;;;0.40;0.20;;;9.20;99.90;;;;;;5091269;28;20484;-72
2021/11/15 05:50:46;;;;;;;0.40;0.20;;;9.20;99.90;;;;;;5090491;28;20401;-70
2021/11/15 05:53:13;;;;;;;0.40;0.20;;;9.30;99.90;;;;;;5091432;28;20386;-72
2021/11/15 05:55:40;;;;;;;0.40;0.40;;;9.20;99.90;;;;;;5090366;28;20430;-71
2021/11/15 05:58:06;;;;;;;0.40;0.20;;;9.20;99.90;;;;;;5090856;28;20447;-71
2021/11/15 06:00:33;;;;;;;1.10;1.10;;;9.10;99.90;;;;;;5090321;28;20390;-71
2021/11/15 06:02:58;;;;;;;0.40;0.30;;;9.10;99.90;;;;;;5090695;28;20834;-71
2021/11/15 06:05:25;;;;;;;0.40;0.30;;;9.20;99.90;;;;;;5090953;28;20416;-72
2021/11/15 06:07:51;;;;;;;0.40;0.30;;;9.20;99.90;;;;;;5090316;28;20378;-72
2021/11/15 06:10:17;;;;;;;0.40;0.20;;;9.20;99.90;;;;;;5090684;28;20383;-72
2021/11/15 06:12:43;;;;;;;0.50;0.50;;;9.20;99.90;;;;;;5090263;28;20384;-71
2021/11/15 06:15:11;;;;;;;1.10;0.40;;;9.10;99.90;;;;;;5090946;28;20382;-72
2021/11/15 06:17:38;;;;;;;0.40;0.20;;;9.10;99.90;;;;;;5090146;28;20467;-71
2021/11/15 06:20:08;;;;;;;0.40;0.30;;;9.20;99.90;;;;;;5090919;28;20473;-72
2021/11/15 06:22:34;;;;;;;0.40;0.20;;;9.20;99.90;;;;;;5090159;28;20447;-71
2021/11/15 06:24:59;;;;;;;0.40;0.20;;;9.20;99.90;;;;;;5090996;28;20375;-72
2021/11/15 06:27:25;;;;;;;0.60;0.40;;;9.20;99.90;;;;;;5090897;28;20931;-72
2021/11/15 06:29:51;;;;;;;0.90;0.50;;;9.10;99.90;;;;;;5090167;28;20378;-72
2021/11/15 06:32:17;;;;;;;4.40;1.20;;;9.10;99.90;;;;;;5090295;28;20378;-73
2021/11/15 06:34:43;;;;;;;0.40;0.30;;;9.20;99.90;;;;;;5089650;28;20385;-72
2021/11/15 06:37:08;;;;;;;0.40;0.20;;;9.30;99.90;;;;;;5090198;28;20406;-72
2021/11/15 06:39:35;;;;;;;0.40;0.20;;;9.20;99.90;;;;;;5090050;28;20393;-72
2021/11/15 06:42:01;;;;;;;0.40;0.40;;;9.20;99.90;;;;;;5090531;28;20845;-72
2021/11/15 06:44:31;;;;;;;0.40;0.20;;;9.20;99.90;;;;;;5090495;28;20390;-74
2021/11/15 06:46:58;;;;;;;0.40;0.30;;;9.10;99.90;;;;;;5089453;28;20983;-71
2021/11/15 06:49:24;;;;;;;0.40;0.20;;;9.10;99.90;;;;;;5090517;28;20790;-72
2021/11/15 06:51:49;;;;;;;0.40;0.20;;;9.20;99.90;;;;;;5089755;28;20912;-72
2021/11/15 06:54:16;;;;;;;0.40;0.30;;;9.10;99.90;;;;;;5090221;28;20375;-72
2021/11/15 06:56:42;;;;;;;0.40;0.20;;;9.10;99.90;;;;;;5089657;28;20447;-72
2021/11/15 06:59:08;;;;;;;0.40;0.20;;;9.10;99.90;;;;;;5090517;28;20390;-72
2021/11/15 07:01:35;;;;;;;0.40;0.20;;;9.10;99.90;;;;;;5090370;28;20722;-72
2021/11/15 07:04:02;;;;;;;0.40;0.30;;;9.10;99.90;;;;;;5089491;28;20731;-72
2021/11/15 07:06:27;;;;;;;0.75;0.57;;;9.10;99.90;;;;;;5090299;28;20410;-71
2021/11/15 07:08:53;;;;;;;0.40;0.28;;;9.10;99.90;;;;;;5089838;28;20794;-71
2021/11/15 07:11:19;;;;;;;0.40;0.30;;;9.00;99.90;;;;;;5090338;28;20374;-72
2021/11/15 07:13:44;;;;;;;0.40;0.20;;;9.10;99.90;;;;;;5089870;28;20458;-71
2021/11/15 07:16:10;;;;;;;0.40;0.20;;;9.10;99.90;;;;;;5092488;28;20964;-71
2021/11/15 07:18:36;;;;;;;0.40;0.40;;;9.00;99.90;;;;;;5099512;28;20398;-70
2021/11/15 07:21:02;;;;;;;0.40;0.20;;;9.00;99.90;;;;;;5095770;28;20383;-72
2021/11/15 07:23:28;;;;;;;0.40;0.30;;;9.20;99.90;;;;;;5091818;28;20457;-72
2021/11/15 07:25:54;;;;;;;0.40;0.20;;;9.30;99.90;;;;;;5093460;28;20378;-72
2021/11/15 07:28:21;;;;;;;0.40;0.30;;;9.20;99.90;;;;;;5092169;28;20431;-72
2021/11/15 07:30:54;;;;;;;0.40;0.20;;;9.10;99.90;;;;;;5086010;28;20386;-72
2021/11/15 07:33:24;;;;;;;0.40;0.20;;;9.10;99.90;;;;;;5092157;28;20389;-72
2021/11/15 07:35:50;;;;;;;0.40;0.20;;;9.10;99.90;;;;;;5090229;28;20378;-73
2021/11/15 07:38:17;;;;;;;0.40;0.25;;;9.10;99.90;;;;;;5091261;28;20398;-71
2021/11/15 07:40:43;;;;;;;0.40;0.20;;;9.00;99.90;;;;;;5085849;28;20788;-72
2021/11/15 07:43:09;;;;;;;0.40;0.20;;;9.00;99.90;;;;;;5089679;28;20880;-72
2021/11/15 07:45:35;;;;;;;2.30;0.87;;;9.10;99.90;;;;;;5090916;28;20427;-71
2021/11/15 07:48:00;;;;;;;0.50;0.40;;;9.00;99.90;;;;;;5092501;28;20386;-72
2021/11/15 07:50:26;;;;;;;0.40;0.20;;;9.00;99.90;;;;;;5091066;28;20961;-72
2021/11/15 07:52:52;;;;;;;0.40;0.20;;;9.10;99.90;;;;;;5085841;28;20471;-71
2021/11/15 07:55:17;;;;;;;0.40;0.20;;;9.10;99.90;;;;;;5090374;28;20778;-72
2021/11/15 07:57:44;;;;;;;0.40;0.20;;;9.10;99.90;;;;;;5080116;28;20882;-72
2021/11/15 08:00:15;;;;;;;0.40;0.30;;;9.20;99.90;;;;;;5084221;28;20386;-71
2021/11/15 08:02:42;;;;;;;0.40;0.20;;;9.20;99.90;;;;;;5086895;28;20470;-72
2021/11/15 08:05:11;;;;;;;0.40;0.20;;;9.30;99.90;;;;;;5090219;28;20828;-72
2021/11/15 08:07:36;;;;;;;0.40;0.20;;;9.20;99.90;;;;;;5090531;28;20388;-72
2021/11/15 08:10:08;;;;;;;0.40;0.20;;;9.30;99.90;;;;;;5092189;28;20385;-72
2021/11/15 08:12:37;;;;;;;0.40;0.30;;;9.30;99.90;;;;;;5092867;28;20386;-72
2021/11/15 08:15:07;;;;;;;0.40;0.25;;;9.30;99.90;;;;;;5092299;28;20436;-72
2021/11/15 08:17:33;;;;;;;0.40;0.20;;;9.20;99.90;;;;;;5092722;28;20406;-72
2021/11/15 08:20:00;;;;;;;0.40;0.20;;;9.20;99.90;;;;;;5081339;28;20388;-72
2021/11/15 08:22:28;;;;;;;0.70;0.70;;;9.20;99.90;;;;;;5079162;28;20447;-72
2021/11/15 08:25:00;;;;;;;0.40;0.20;;;9.20;99.90;;;;;;5078343;28;20437;-73
2021/11/15 08:27:26;;;;;;;0.40;0.20;;;9.40;99.90;;;;;;5078639;28;21009;-71
2021/11/15 08:29:52;;;;;;;0.40;0.30;;;9.30;99.90;;;;;;5077068;28;20845;-72
2021/11/15 08:32:24;;;;;;;0.40;0.40;;;9.20;99.90;;;;;;5079032;28;20406;-71
2021/11/15 08:35:21;;;;;;;0.40;0.20;;;9.40;99.90;;;;;;5077813;28;20390;-76
2021/11/15 08:38:18;;;;;;;0.40;0.20;;;9.40;99.90;;;;;;5078186;28;20413;-74
2021/11/15 08:40:49;;;;;;;0.40;0.20;;;9.40;99.90;;;;;;5076675;28;20402;-72
2021/11/15 08:43:22;;;;;;;0.40;0.20;;;9.30;99.90;;;;;;5078574;28;20374;-73
2021/11/15 08:45:49;;;;;;;0.40;0.20;;;9.40;99.90;;;;;;5077512;28;20906;-72
2021/11/15 08:48:16;;;;;;;0.40;0.20;;;9.50;99.90;;;;;;5078437;28;20752;-71
2021/11/15 08:50:41;;;;;;;0.40;0.20;;;9.50;99.90;;;;;;5076055;28;20398;-72
2021/11/15 08:53:07;;;;;;;0.40;0.40;;;9.30;99.90;;;;;;5078629;28;20379;-72
2021/11/15 08:55:33;;;;;;;0.40;0.20;;;9.40;99.90;;;;;;5078362;28;20886;-71
2021/11/15 08:58:03;;;;;;;0.40;0.20;;;9.40;99.90;;;;;;5077708;28;21638;-72
2021/11/15 09:00:29;;;;;;;0.40;0.20;;;9.30;99.90;;;;;;5076430;28;20451;-71
2021/11/15 09:02:58;;;;;;;0.40;0.20;;;9.40;99.90;;;;;;5077440;28;20986;-73
2021/11/15 09:05:24;;;;;;;0.40;0.20;;;9.40;99.90;;;;;;5077718;28;20495;-72
2021/11/15 09:07:51;;;;;;;0.40;0.30;;;9.50;99.90;;;;;;5077820;28;20792;-72
2021/11/15 09:10:20;;;;;;;0.40;0.40;;;9.60;99.90;;;;;;5076384;28;20381;-72
2021/11/15 09:12:47;;;;;;;0.40;0.30;;;9.70;99.90;;;;;;5076137;28;20429;-72
2021/11/15 09:15:15;;;;;;;0.40;0.30;;;9.60;99.90;;;;;;5078379;28;20823;-72
2021/11/15 09:17:42;;;;;;;0.55;0.45;;;9.60;99.90;;;;;;5077905;28;20441;-72
2021/11/15 09:20:11;;;;;;;0.40;0.30;;;9.70;99.90;;;;;;5076491;28;20412;-73
2021/11/15 09:22:38;;;;;;;0.40;0.30;;;9.70;99.90;;;;;;5077541;28;20456;-72
2021/11/15 09:25:05;;;;;;;0.50;0.50;;;9.70;99.90;;;;;;5077294;28;20386;-73
2021/11/15 09:27:33;;;;;;;0.40;0.20;;;9.70;99.90;;;;;;5077841;28;20423;-72
2021/11/15 09:29:59;;;;;;;0.40;0.20;;;9.90;99.90;;;;;;5075575;28;20374;-72
2021/11/15 09:32:26;;;;;;;0.40;0.30;;;9.80;99.90;;;;;;5077537;28;20831;-72
2021/11/15 09:34:51;;;;;;;0.40;0.20;;;9.70;99.90;;;;;;5077446;28;20797;-72
2021/11/15 09:37:21;;;;;;;0.40;0.20;;;9.80;99.90;;;;;;5077514;28;20410;-71
2021/11/15 09:39:50;;;;;;;0.50;0.50;;;9.80;99.90;;;;;;5075667;28;20453;-72
2021/11/15 09:42:16;;;;;;;0.40;0.20;;;9.70;99.90;;;;;;5077177;28;20383;-71
2021/11/15 09:44:43;;;;;;;0.40;0.20;;;9.50;99.90;;;;;;5077382;28;20386;-72
2021/11/15 09:47:10;;;;;;;0.40;0.20;;;9.60;99.90;;;;;;5076345;28;20444;-71
2021/11/15 09:49:37;;;;;;;0.40;0.20;;;9.50;99.90;;;;;;5075808;28;20393;-71
2021/11/15 09:52:04;;;;;;;0.40;0.20;;;9.60;99.90;;;;;;5075903;28;20907;-71
2021/11/15 09:54:29;;;;;;;0.40;0.30;;;9.80;99.90;;;;;;5077311;28;20706;-72
2021/11/15 09:56:55;;;;;;;0.40;0.20;;;9.80;99.90;;;;;;5076927;28;20374;-72
2021/11/15 09:59:24;;;;;;;0.40;0.28;;;9.90;99.90;;;;;;5075716;28;20781;-72
2021/11/15 10:01:52;;;;;;;0.40;0.30;;;10.00;99.90;;;;;;5076874;28;20382;-71
2021/11/15 10:04:19;;;;;;;0.40;0.20;;;10.00;99.90;;;;;;5077341;28;20382;-71
2021/11/15 10:06:52;;;;;;;0.40;0.30;;;10.10;99.90;;;;;;5077324;28;20439;-72
2021/11/15 10:09:33;;;;;;;0.40;0.20;;;10.00;99.90;;;;;;5075403;28;20565;-72
2021/11/15 10:12:35;;;;;;;0.40;0.20;;;10.00;99.90;;;;;;5076414;28;20390;-74
2021/11/15 10:15:05;;;;;;;0.40;0.30;;;10.10;99.90;;;;;;5076452;28;20394;-72
2021/11/15 10:18:12;;;;;;;;;;;;;;;;;;;;;
2021/11/15 10:21:19;;;;;;;0.40;0.20;;;10.00;99.90;;;;;;5075035;28;20611;-73
2021/11/15 10:24:05;;;;;;;0.40;0.30;;;10.30;99.90;;;;;;5070940;28;20489;-74
2021/11/15 10:26:57;;;;;;;0.65;0.65;;;10.10;99.90;;;;;;5077004;28;20513;-72
2021/11/15 10:29:32;;;;;;;0.40;0.20;;;10.10;99.90;;;;;;5075480;28;20390;-72
2021/11/15 10:32:02;;;;;;;0.40;0.20;;;9.90;99.90;;;;;;5074529;28;21185;-72
2021/11/15 10:34:58;;;;;;;0.40;0.20;;;9.80;99.90;;;;;;5077135;28;20397;-72
2021/11/15 10:37:29;;;;;;;0.40;0.20;;;9.70;99.90;;;;;;5077105;28;20418;-73
2021/11/15 10:39:55;;;;;;;0.40;0.20;;;9.80;99.90;;;;;;5074393;28;20424;-74
2021/11/15 10:42:30;;;;;;;0.40;0.20;;;9.80;99.90;;;;;;5077406;28;20386;-73
2021/11/15 10:45:00;;;;;;;0.70;0.70;;;9.80;99.90;;;;;;5076749;28;20478;-71
2021/11/15 10:47:36;;;;;;;1.00;0.60;;;9.90;99.90;;;;;;5076852;28;20416;-72
2021/11/15 10:50:22;;;;;;;0.40;0.20;;;9.90;99.90;;;;;;5074513;28;20394;-72
2021/11/15 10:53:06;;;;;;;0.40;0.20;;;10.00;99.90;;;;;;5077046;28;20423;-72
2021/11/15 10:55:55;;;;;;;0.40;0.20;;;10.10;99.90;;;;;;5077066;28;20393;-71
2021/11/15 10:58:23;;;;;;;0.40;0.30;;;9.90;99.90;;;;;;5072119;28;20878;-71
2021/11/15 11:00:58;;;;;;;0.40;0.30;;;9.90;99.90;;;;;;5079453;28;20879;-71
2021/11/15 11:03:27;;;;;;;0.40;0.20;;;9.90;99.90;;;;;;5081198;28;20389;-72
2021/11/15 11:05:55;;;;;;;0.40;0.20;;;10.00;99.90;;;;;;5079862;28;20374;-72
2021/11/15 11:08:22;;;;;;;1.10;0.80;;;10.00;99.90;;;;;;5080634;28;20398;-71
2021/11/15 11:11:03;;;;;;;0.40;0.30;;;10.10;99.90;;;;;;5079527;28;20386;-72
2021/11/15 11:13:57;;;;;;;0.40;0.40;;;10.20;99.90;;;;;;5080656;28;20447;-72
2021/11/15 11:17:03;;;;;;;0.40;0.20;;;10.20;99.90;;;;;;5080365;28;20482;-72
2021/11/15 11:19:31;;;;;;;0.40;0.20;;;10.10;99.90;;;;;;4996066;28;20989;-72
2021/11/15 11:22:25;;;;;;;0.40;0.30;;;10.10;99.90;;;;;;4996390;28;20404;-72
2021/11/15 11:25:06;;;;;;;0.40;0.20;;;10.00;99.90;;;;;;5052668;28;20401;-71
2021/11/15 11:27:34;;;;;;;0.40;0.20;;;10.20;99.90;;;;;;5080510;28;20398;-71
2021/11/15 11:30:00;;;;;;;0.40;0.40;;;10.30;99.90;;;;;;5078066;28;20393;-71
2021/11/15 11:32:28;;;;;;;0.40;0.20;;;10.40;99.90;;;;;;5080166;28;20802;-72
2021/11/15 11:34:57;;;;;;;0.40;0.30;;;10.20;99.90;;;;;;5079653;28;20429;-71
2021/11/15 11:37:27;;;;;;;0.80;0.80;;;10.20;99.90;;;;;;5080056;28;20445;-72
2021/11/15 11:39:54;;;;;;;0.40;0.20;;;10.20;99.90;;;;;;5077301;28;20386;-72
2021/11/15 11:42:23;;;;;;;0.40;0.20;;;10.20;99.90;;;;;;5079509;28;20386;-72
2021/11/15 11:44:51;;;;;;;0.60;0.60;;;10.10;99.90;;;;;;5079929;28;20409;-72
2021/11/15 11:47:19;;;;;;;0.40;0.20;;;10.10;99.90;;;;;;5079856;28;20754;-72
2021/11/15 11:49:46;;;;;;;0.40;0.30;;;10.00;99.90;;;;;;5078093;28;20418;-72
2021/11/15 11:52:15;;;;;;;0.40;0.20;;;10.00;99.90;;;;;;5078761;28;20824;-72
2021/11/15 11:54:46;;;;;;;0.40;0.30;;;10.10;99.90;;;;;;5079551;28;20390;-71
2021/11/15 11:57:29;;;;;;;0.40;0.20;;;10.00;99.90;;;;;;5078651;28;20390;-72
2021/11/15 11:59:55;;;;;;;0.40;0.20;;;10.10;99.90;;;;;;5077558;28;20412;-71
2021/11/15 12:02:24;;;;;;;0.40;0.30;;;10.10;99.90;;;;;;5079148;28;20386;-70
2021/11/15 12:05:05;;;;;;;1.90;0.90;;;10.20;99.90;;;;;;5079263;28;20848;-72
2021/11/15 12:07:37;;;;;;;0.60;0.50;;;10.20;99.90;;;;;;5079333;28;20451;-72
2021/11/15 12:10:08;;;;;;;0.40;0.40;;;10.20;99.90;;;;;;5076679;28;20405;-71
2021/11/15 12:12:52;;;;;;;0.40;0.30;;;10.30;99.90;;;;;;5079530;28;20553;-71
2021/11/15 12:15:42;;;;;;;0.40;0.20;;;10.20;99.90;;;;;;5079503;28;21573;-71
2021/11/15 12:18:33;;;;;;;0.40;0.20;;;10.30;99.90;;;;;;5078566;28;20422;-71
2021/11/15 12:21:05;;;;;;;1.20;0.50;;;10.30;99.90;;;;;;5077955;28;22061;-71
2021/11/15 12:24:06;;;;;;;0.40;0.20;;;10.20;99.90;;;;;;5079387;28;20382;-71
2021/11/15 12:26:47;;;;;;;0.40;0.30;;;10.20;99.90;;;;;;5078869;28;20394;-71
2021/11/15 12:29:26;;;;;;;0.40;0.20;;;10.00;99.90;;;;;;5076757;28;20402;-71
2021/11/15 12:31:53;;;;;;;0.40;0.20;;;10.00;99.90;;;;;;5078630;28;20484;-72
2021/11/15 12:34:22;;;;;;;1.40;0.60;;;10.10;99.90;;;;;;5079155;28;20382;-71
2021/11/15 12:36:53;;;;;;;0.40;0.20;;;10.00;99.90;;;;;;5078863;28;20378;-71
2021/11/15 12:39:22;;;;;;;0.40;0.30;;;10.00;99.90;;;;;;5077043;28;20451;-71
2021/11/15 12:41:51;;;;;;;0.40;0.20;;;10.10;99.90;;;;;;5078639;28;20634;-71
2021/11/15 12:44:36;;;;;;;0.70;0.70;;;10.20;99.90;;;;;;5078353;28;20800;-72
2021/11/15 12:47:17;;;;;;;0.40;0.20;;;10.00;99.90;;;;;;5078087;28;20470;-71
2021/11/15 12:49:50;;;;;;;0.40;0.20;;;10.20;99.90;;;;;;5076107;28;20416;-71
2021/11/15 12:52:23;;;;;;;0.40;0.20;;;10.20;99.90;;;;;;5078193;28;20420;-71
2021/11/15 12:55:12;;;;;;;0.40;0.20;;;10.00;99.90;;;;;;5078596;28;20802;-72
2021/11/15 12:57:41;;;;;;;0.40;0.20;;;9.90;99.90;;;;;;5078898;28;20816;-71
2021/11/15 13:00:17;;;;;;;0.40;0.30;;;9.70;99.90;;;;;;5076245;28;20394;-71
2021/11/15 13:02:46;;;;;;;0.40;0.30;;;9.70;99.90;;;;;;5077060;28;20834;-72
2021/11/15 13:05:11;;;;;;;0.50;0.50;;;9.90;99.90;;;;;;5077406;28;20390;-70